createdAt,value
2022-08-31T00:01:02.490Z,102119.47
2022-08-31T00:04:05.726Z,102125.22
2022-08-31T00:07:08.319Z,102116.50
2022-08-31T00:10:14.974Z,102113.06
2022-08-31T00:13:19.172Z,102117.78
2022-08-31T00:16:21.947Z,102112.91
2022-08-31T00:19:24.656Z,102108.50
2022-08-31T00:22:27.324Z,102102.22
2022-08-31T00:25:29.985Z,102106.13
2022-08-31T00:28:34.127Z,102111.38
2022-08-31T00:31:36.737Z,102094.50
2022-08-31T00:34:39.407Z,102099.38
2022-08-31T00:37:42.188Z,102095.63
2022-08-31T00:40:46.914Z,102095.31
2022-08-31T00:43:53.639Z,102101.38
2022-08-31T00:46:56.233Z,102095.19
2022-08-31T00:49:59.163Z,102099.09
2022-08-31T00:53:02.450Z,102107.09
2022-08-31T00:56:05.940Z,102106.19
2022-08-31T00:59:09.891Z,102101.78
2022-08-31T01:02:12.515Z,102105.38
2022-08-31T01:05:16.079Z,102102.44
2022-08-31T01:08:18.913Z,102102.59
2022-08-31T01:11:30.269Z,102102.31
2022-08-31T01:14:35.676Z,102105.84
2022-08-31T01:17:39.518Z,102108.44
2022-08-31T01:20:49.450Z,102112.72
2022-08-31T01:23:56.058Z,102115.53
2022-08-31T01:27:03.424Z,102117.31
2022-08-31T01:30:09.673Z,102114.19
2022-08-31T01:33:13.297Z,102116.50
2022-08-31T01:36:17.085Z,102120.22
2022-08-31T01:39:21.876Z,102123.97
2022-08-31T01:42:33.453Z,102121.91
2022-08-31T01:45:37.059Z,102120.94
2022-08-31T01:48:41.767Z,102122.25
2022-08-31T01:51:45.097Z,102129.31
2022-08-31T01:54:49.066Z,102128.38
2022-08-31T01:57:51.737Z,102129.72
2022-08-31T02:00:54.433Z,102126.91
2022-08-31T02:03:57.426Z,102131.50
2022-08-31T02:07:02.303Z,102136.31
2022-08-31T02:10:07.331Z,102130.00
2022-08-31T02:13:09.931Z,102126.44
2022-08-31T02:16:12.555Z,102131.84
2022-08-31T02:19:15.182Z,102132.00
2022-08-31T02:22:17.793Z,102134.78
2022-08-31T02:25:22.031Z,102120.09
2022-08-31T02:28:24.649Z,102129.19
2022-08-31T02:31:27.486Z,102130.38
2022-08-31T02:34:30.243Z,102121.84
2022-08-31T02:37:33.020Z,102121.09
2022-08-31T02:40:41.009Z,102122.75
2022-08-31T02:43:44.299Z,102126.41
2022-08-31T02:46:47.009Z,102120.25
2022-08-31T02:49:49.651Z,102118.44
2022-08-31T02:52:55.030Z,102116.53
2022-08-31T02:55:59.049Z,102126.53
2022-08-31T02:59:01.661Z,102114.00
2022-08-31T03:02:04.729Z,102114.00
2022-08-31T03:05:08.954Z,102107.19
2022-08-31T03:08:11.687Z,102112.56
2022-08-31T03:11:16.454Z,102113.38
2022-08-31T03:14:19.081Z,102120.56
2022-08-31T03:17:21.695Z,102112.38
2022-08-31T03:20:26.429Z,102107.88
2022-08-31T03:23:29.014Z,102104.47
2022-08-31T03:26:33.206Z,102106.13
2022-08-31T03:29:36.791Z,102113.31
2022-08-31T03:32:40.011Z,102102.91
2022-08-31T03:35:44.123Z,102109.16
2022-08-31T03:38:46.855Z,102109.13
2022-08-31T03:41:50.780Z,102113.66
2022-08-31T03:44:53.492Z,102110.28
2022-08-31T03:47:56.179Z,102115.00
2022-08-31T03:50:58.957Z,102117.16
2022-08-31T03:54:01.531Z,102115.72
2022-08-31T03:57:06.883Z,102118.28
2022-08-31T04:00:11.117Z,102123.50
2022-08-31T04:03:14.088Z,102123.72
2022-08-31T04:06:16.866Z,102122.56
2022-08-31T04:09:21.113Z,102120.94
2022-08-31T04:12:25.079Z,102121.44
2022-08-31T04:15:27.727Z,102121.88
2022-08-31T04:18:32.111Z,102127.50
2022-08-31T04:21:34.999Z,102131.78
2022-08-31T04:24:37.643Z,102132.59
2022-08-31T04:27:42.437Z,102136.25
2022-08-31T04:30:45.050Z,102138.16
2022-08-31T04:33:48.000Z,102135.50
2022-08-31T04:36:50.704Z,102141.38
2022-08-31T04:39:55.446Z,102142.63
2022-08-31T04:43:03.093Z,102141.41
2022-08-31T04:46:08.437Z,102135.13
2022-08-31T04:49:14.506Z,102143.06
2022-08-31T04:52:17.139Z,102144.16
2022-08-31T04:55:19.991Z,102144.84
2022-08-31T04:58:24.601Z,102145.53
2022-08-31T05:01:29.716Z,102143.81
2022-08-31T05:04:38.871Z,102148.13
2022-08-31T05:07:41.451Z,102140.13
2022-08-31T05:10:44.010Z,102135.75
2022-08-31T05:13:48.193Z,102145.28
2022-08-31T05:16:51.397Z,102141.00
2022-08-31T05:19:54.292Z,102139.63
2022-08-31T05:22:56.851Z,102141.34
2022-08-31T05:25:59.392Z,102143.91
2022-08-31T05:29:07.622Z,102140.16
2022-08-31T05:32:12.083Z,102143.53
2022-08-31T05:35:15.175Z,102148.16
2022-08-31T05:38:17.749Z,102156.66
2022-08-31T05:41:20.616Z,102163.56
2022-08-31T05:44:27.643Z,102159.88
2022-08-31T05:47:32.243Z,102158.78
2022-08-31T05:50:34.898Z,102164.91
2022-08-31T05:53:37.721Z,102162.59
2022-08-31T05:56:42.883Z,102178.47
2022-08-31T05:59:46.981Z,102176.44
2022-08-31T06:02:53.748Z,102172.63
2022-08-31T06:05:56.529Z,102172.44
2022-08-31T06:08:59.404Z,102175.00
2022-08-31T06:12:01.983Z,102179.22
2022-08-31T06:15:07.531Z,102175.19
2022-08-31T06:18:10.634Z,102182.06
2022-08-31T06:21:13.169Z,102186.44
2022-08-31T06:24:15.755Z,102172.63
2022-08-31T06:27:19.072Z,102177.34
2022-08-31T06:30:27.138Z,102176.97
2022-08-31T06:33:30.660Z,102174.78
2022-08-31T06:36:33.606Z,102179.53
2022-08-31T06:39:36.423Z,102181.69
2022-08-31T06:42:39.691Z,102173.69
2022-08-31T06:45:43.753Z,102178.38
2022-08-31T06:48:46.741Z,102182.28
2022-08-31T06:51:50.394Z,102185.84
2022-08-31T06:54:53.047Z,102179.25
2022-08-31T06:57:55.632Z,102185.75
2022-08-31T07:00:59.711Z,102181.94
2022-08-31T07:04:07.061Z,102168.84
2022-08-31T07:07:11.362Z,102182.25
2022-08-31T07:10:14.336Z,102179.03
2022-08-31T07:13:17.031Z,102173.34
2022-08-31T07:16:22.620Z,102169.47
2022-08-31T07:19:26.428Z,102173.84
2022-08-31T07:22:29.139Z,102184.13
2022-08-31T07:25:31.788Z,102180.78
2022-08-31T07:28:35.314Z,102186.81
2022-08-31T07:31:44.611Z,102193.66
2022-08-31T07:34:50.745Z,102188.84
2022-08-31T07:38:15.337Z,102187.97
2022-08-31T07:41:50.120Z,102183.72
2022-08-31T07:44:54.370Z,102186.94
2022-08-31T07:47:59.871Z,102184.03
2022-08-31T07:51:02.583Z,102187.00
2022-08-31T07:54:06.824Z,102186.47
2022-08-31T07:57:09.965Z,102194.84
2022-08-31T08:00:14.566Z,102190.63
2022-08-31T08:03:18.783Z,102197.06
2022-08-31T08:06:21.959Z,102191.97
2022-08-31T08:09:25.345Z,102202.84
2022-08-31T08:12:28.512Z,102208.97
2022-08-31T08:15:33.091Z,102204.25
2022-08-31T08:18:39.610Z,102204.97
2022-08-31T08:21:43.462Z,102210.06
2022-08-31T08:24:47.217Z,102203.56
2022-08-31T08:27:49.896Z,102205.69
2022-08-31T08:30:54.479Z,102205.88
2022-08-31T08:33:59.250Z,102203.00
2022-08-31T08:37:02.185Z,102206.75
2022-08-31T08:40:06.516Z,102199.59
2022-08-31T08:43:11.970Z,102201.34
2022-08-31T08:46:34.054Z,102205.44
2022-08-31T08:49:43.830Z,102209.47
2022-08-31T08:52:47.340Z,102210.97
2022-08-31T08:55:50.565Z,102202.94
2022-08-31T08:58:53.167Z,102204.78
2022-08-31T09:02:06.819Z,102204.78
2022-08-31T09:05:24.128Z,102204.72
2022-08-31T09:08:48.693Z,102202.25
2022-08-31T09:12:05.045Z,102203.97
2022-08-31T09:15:37.208Z,102216.47
2022-08-31T09:18:47.302Z,102203.00
2022-08-31T09:21:53.413Z,102198.94
2022-08-31T09:24:59.516Z,102197.84
2022-08-31T09:28:04.574Z,102203.84
2022-08-31T09:31:07.222Z,102202.00
2022-08-31T09:34:14.301Z,102205.84
2022-08-31T09:37:22.407Z,102209.84
2022-08-31T09:40:37.101Z,102207.97
2022-08-31T09:43:41.204Z,102199.63
2022-08-31T09:46:48.395Z,102207.84
2022-08-31T09:49:57.801Z,102210.72
2022-08-31T09:53:31.608Z,102198.72
2022-08-31T09:56:55.400Z,102193.41
2022-08-31T09:59:58.175Z,102187.09
2022-08-31T10:03:12.136Z,102188.19
2022-08-31T10:06:45.608Z,102186.56
2022-08-31T10:09:57.949Z,102191.50
2022-08-31T10:13:05.221Z,102187.00
2022-08-31T10:16:17.114Z,102187.25
2022-08-31T10:19:32.949Z,102187.75
2022-08-31T10:22:41.913Z,102178.31
2022-08-31T10:25:52.601Z,102185.13
2022-08-31T10:28:59.213Z,102183.19
2022-08-31T10:32:09.465Z,102187.53
2022-08-31T10:35:19.379Z,102186.31
2022-08-31T10:38:28.226Z,102183.31
2022-08-31T10:41:37.310Z,102177.44
2022-08-31T10:44:52.264Z,102184.78
2022-08-31T10:47:56.811Z,102181.88
2022-08-31T10:51:19.311Z,102175.09
2022-08-31T10:54:30.922Z,102173.75
2022-08-31T10:57:42.530Z,102173.19
2022-08-31T11:00:52.933Z,102167.69
2022-08-31T11:04:29.948Z,102169.41
2022-08-31T11:07:44.582Z,102173.72
2022-08-31T11:10:51.689Z,102164.50
2022-08-31T11:14:17.958Z,102166.09
2022-08-31T11:17:34.103Z,102167.19
2022-08-31T11:20:56.886Z,102159.78
2022-08-31T11:24:11.625Z,102154.88
2022-08-31T11:27:23.583Z,102145.88
2022-08-31T11:30:32.777Z,102146.50
2022-08-31T11:33:36.363Z,102148.19
2022-08-31T11:36:49.993Z,102136.56
2022-08-31T11:39:53.453Z,102142.84
2022-08-31T11:42:57.727Z,102140.97
2022-08-31T11:46:59.795Z,102136.81
2022-08-31T11:50:09.598Z,102134.78
2022-08-31T11:53:25.335Z,102131.59
2022-08-31T11:56:36.418Z,102121.75
2022-08-31T11:59:46.105Z,102119.00
2022-08-31T12:03:09.344Z,102115.16
2022-08-31T12:06:50.747Z,102110.13
2022-08-31T12:10:27.602Z,102104.84
2022-08-31T12:13:45.777Z,102111.00
2022-08-31T12:17:02.092Z,102108.84
2022-08-31T12:20:13.525Z,102109.13
2022-08-31T12:23:35.545Z,102099.47
2022-08-31T12:26:50.070Z,102106.66
2022-08-31T12:29:53.494Z,102103.28
2022-08-31T12:33:02.662Z,102091.84
2022-08-31T12:36:19.015Z,102090.94
2022-08-31T12:39:23.721Z,102092.06
2022-08-31T12:42:26.886Z,102094.75
2022-08-31T12:45:51.147Z,102092.22
2022-08-31T12:49:11.766Z,102089.38
2022-08-31T12:52:28.498Z,102086.28
2022-08-31T12:55:38.932Z,102069.16
2022-08-31T12:58:58.689Z,102067.44
2022-08-31T13:02:01.880Z,102063.28
2022-08-31T13:05:05.303Z,102065.34
2022-08-31T13:08:21.686Z,102062.06
2022-08-31T13:11:35.205Z,102062.94
2022-08-31T13:14:44.656Z,102064.63
2022-08-31T13:17:47.387Z,102059.78
2022-08-31T13:20:56.103Z,102051.03
2022-08-31T13:24:08.133Z,102057.31
2022-08-31T13:27:17.115Z,102057.56
2022-08-31T13:30:25.417Z,102045.22
2022-08-31T13:33:31.256Z,102045.19
2022-08-31T13:36:37.841Z,102047.31
2022-08-31T13:39:46.050Z,102041.13
2022-08-31T13:42:56.496Z,102032.63
2022-08-31T13:46:00.888Z,102029.16
2022-08-31T13:49:06.658Z,102035.66
2022-08-31T13:52:18.562Z,102035.50
2022-08-31T13:55:39.270Z,102033.75
2022-08-31T13:58:41.897Z,102044.66
2022-08-31T14:01:47.523Z,102036.53
2022-08-31T14:05:00.232Z,102036.50
2022-08-31T14:08:07.151Z,102048.59
2022-08-31T14:11:14.895Z,102052.16
2022-08-31T14:14:20.498Z,102047.94
2022-08-31T14:17:27.052Z,102041.16
2022-08-31T14:20:36.858Z,102038.13
2022-08-31T14:23:39.553Z,102035.53
2022-08-31T14:26:45.749Z,102036.03
2022-08-31T14:29:48.309Z,102026.44
2022-08-31T14:32:50.753Z,102024.69
2022-08-31T14:35:55.369Z,102028.84
2022-08-31T14:38:58.625Z,102014.41
2022-08-31T14:42:07.019Z,102023.66
2022-08-31T14:45:18.310Z,102006.41
2022-08-31T14:48:21.040Z,102006.19
2022-08-31T14:51:23.974Z,102008.19
2022-08-31T14:54:28.430Z,102015.59
2022-08-31T14:57:34.148Z,102006.47
2022-08-31T15:00:43.716Z,102003.88
2022-08-31T15:03:46.375Z,102013.53
2022-08-31T15:06:52.538Z,102012.53
2022-08-31T15:09:54.978Z,102015.38
2022-08-31T15:13:05.473Z,102008.19
2022-08-31T15:16:10.812Z,102017.47
2022-08-31T15:19:14.824Z,102015.00
2022-08-31T15:22:17.520Z,102011.16
2022-08-31T15:25:22.294Z,102010.81
2022-08-31T15:28:31.557Z,102016.72
2022-08-31T15:31:35.325Z,102017.97
2022-08-31T15:34:38.937Z,102006.84
2022-08-31T15:37:44.682Z,102018.91
2022-08-31T15:40:47.290Z,102012.75
2022-08-31T15:43:51.464Z,102008.28
2022-08-31T15:47:11.815Z,102020.00
2022-08-31T15:50:19.090Z,102012.06
2022-08-31T15:53:27.281Z,102012.41
2022-08-31T15:56:30.383Z,102011.88
2022-08-31T15:59:35.361Z,102016.13
2022-08-31T16:02:38.021Z,102006.00
2022-08-31T16:05:43.361Z,102002.03
2022-08-31T16:08:47.056Z,102002.56
2022-08-31T16:11:51.025Z,101992.84
2022-08-31T16:14:55.123Z,102002.59
2022-08-31T16:17:57.855Z,101999.34
2022-08-31T16:21:05.942Z,101984.44
2022-08-31T16:24:10.178Z,101982.81
2022-08-31T16:27:16.495Z,101980.13
2022-08-31T16:30:20.581Z,101977.97
2022-08-31T16:33:23.243Z,101976.88
2022-08-31T16:36:28.095Z,101975.28
2022-08-31T16:39:31.863Z,101971.56
2022-08-31T16:42:35.116Z,101971.63
2022-08-31T16:45:40.882Z,101965.97
2022-08-31T16:49:01.239Z,101968.19
2022-08-31T16:52:06.825Z,101968.19
2022-08-31T16:55:13.475Z,101974.00
2022-08-31T16:58:25.114Z,101975.00
2022-08-31T17:01:40.707Z,101976.88
2022-08-31T17:04:53.474Z,101982.00
2022-08-31T17:07:57.022Z,101980.81
2022-08-31T17:11:04.854Z,101974.78
2022-08-31T17:14:09.018Z,101981.47
2022-08-31T17:17:16.125Z,101981.28
2022-08-31T17:20:19.205Z,101985.81
2022-08-31T17:23:24.474Z,101986.66
2022-08-31T17:26:31.035Z,101990.53
2022-08-31T17:29:43.438Z,101988.38
2022-08-31T17:32:47.876Z,101998.72
2022-08-31T17:35:50.482Z,101995.47
2022-08-31T17:38:54.910Z,101993.72
2022-08-31T17:41:58.054Z,101996.06
2022-08-31T17:45:04.778Z,101998.00
2022-08-31T17:48:08.731Z,101997.88
2022-08-31T17:51:26.370Z,102006.66
2022-08-31T17:54:32.616Z,102001.25
2022-08-31T17:57:35.299Z,102004.16
2022-08-31T18:00:37.944Z,102001.50
2022-08-31T18:03:41.993Z,102000.63
2022-08-31T18:06:45.728Z,102010.88
2022-08-31T18:09:48.424Z,102012.25
2022-08-31T18:12:51.056Z,102010.50
2022-08-31T18:15:54.592Z,102014.59
2022-08-31T18:18:58.570Z,102014.41
2022-08-31T18:22:01.928Z,102025.56
2022-08-31T18:25:05.451Z,102020.91
2022-08-31T18:28:08.227Z,102020.44
2022-08-31T18:31:11.149Z,102022.72
2022-08-31T18:34:18.974Z,102031.88
2022-08-31T18:37:21.880Z,102039.53
2022-08-31T18:40:42.442Z,102041.47
2022-08-31T18:44:02.693Z,102041.81
2022-08-31T18:47:07.973Z,102039.94
2022-08-31T18:50:12.177Z,102050.38
2022-08-31T18:53:26.832Z,102050.91
2022-08-31T18:56:31.772Z,102056.81
2022-08-31T18:59:34.538Z,102046.84
2022-08-31T19:02:39.730Z,102058.16
2022-08-31T19:05:43.673Z,102047.63
2022-08-31T19:08:46.712Z,102053.47
2022-08-31T19:11:51.228Z,102052.34
2022-08-31T19:14:55.287Z,102057.28
2022-08-31T19:17:58.238Z,102060.50
2022-08-31T19:21:13.572Z,102053.41
2022-08-31T19:24:17.672Z,102055.84
2022-08-31T19:27:20.234Z,102057.03
2022-08-31T19:30:27.465Z,102060.66
2022-08-31T19:33:33.984Z,102067.56
2022-08-31T19:36:40.633Z,102064.81
2022-08-31T19:39:45.801Z,102065.88
2022-08-31T19:46:15.788Z,102063.88
2022-08-31T19:49:18.630Z,102062.78
2022-08-31T19:52:24.242Z,102066.59
2022-08-31T19:55:26.822Z,102062.06
2022-08-31T19:58:29.559Z,102060.75
2022-08-31T20:01:34.102Z,102063.44
2022-08-31T20:04:37.084Z,102067.41
2022-08-31T20:07:41.466Z,102067.03
2022-08-31T20:10:47.122Z,102064.09
2022-08-31T20:13:50.501Z,102074.69
2022-08-31T20:16:54.790Z,102072.00
2022-08-31T20:20:00.861Z,102065.38
2022-08-31T20:23:05.637Z,102079.25
2022-08-31T20:26:09.396Z,102067.88
2022-08-31T20:29:13.499Z,102071.22
2022-08-31T20:32:16.112Z,102073.03
2022-08-31T20:35:18.958Z,102074.56
2022-08-31T20:38:23.751Z,102072.88
2022-08-31T20:41:28.298Z,102068.25
2022-08-31T20:44:32.682Z,102072.56
2022-08-31T20:47:53.159Z,102073.69
2022-08-31T20:50:56.640Z,102072.88
2022-08-31T20:54:00.591Z,102074.31
2022-08-31T20:57:06.230Z,102074.47
2022-08-31T21:00:10.784Z,102076.19
2022-08-31T21:03:14.469Z,102071.13
2022-08-31T21:06:24.541Z,102078.53
2022-08-31T21:09:28.618Z,102075.81
2022-08-31T21:12:31.863Z,102072.69
2022-08-31T21:15:34.622Z,102070.13
2022-08-31T21:18:38.707Z,102070.59
2022-08-31T21:21:42.037Z,102075.81
2022-08-31T21:24:47.470Z,102072.78
2022-08-31T21:27:50.057Z,102068.81
2022-08-31T21:30:53.401Z,102075.81
2022-08-31T21:33:58.316Z,102073.06
2022-08-31T21:37:00.987Z,102072.56
2022-08-31T21:40:06.473Z,102072.38
2022-08-31T21:43:09.190Z,102069.44
2022-08-31T21:46:14.062Z,102070.25
2022-08-31T21:49:17.779Z,102073.94
2022-08-31T21:52:20.867Z,102080.31
2022-08-31T21:55:24.818Z,102084.28
2022-08-31T21:58:58.373Z,102089.94
2022-08-31T22:02:04.053Z,102089.38
2022-08-31T22:05:12.635Z,102094.00
2022-08-31T22:08:15.407Z,102090.47
2022-08-31T22:11:22.746Z,102094.56
2022-08-31T22:14:29.303Z,102094.63
2022-08-31T22:17:57.352Z,102092.03
2022-08-31T22:20:57.346Z,102099.47
2022-08-31T22:24:03.627Z,102105.13
2022-08-31T22:27:10.438Z,102104.63
2022-08-31T22:30:14.017Z,102106.25
2022-08-31T22:33:16.608Z,102106.78
2022-08-31T22:36:31.794Z,102109.06
2022-08-31T22:39:34.824Z,102115.47
2022-08-31T22:42:38.727Z,102119.44
2022-08-31T22:45:47.630Z,102119.50
2022-08-31T22:48:51.303Z,102119.00
2022-08-31T22:51:54.471Z,102115.91
2022-08-31T22:54:57.094Z,102118.66
2022-08-31T22:58:01.026Z,102117.28
2022-08-31T23:01:03.624Z,102116.44
2022-08-31T23:04:08.757Z,102119.78
2022-08-31T23:07:12.264Z,102115.38
2022-08-31T23:10:18.484Z,102110.13
2022-08-31T23:13:42.487Z,102114.44
2022-08-31T23:16:48.475Z,102115.47
2022-08-31T23:19:54.107Z,102113.63
2022-08-31T23:22:56.654Z,102113.31
2022-08-31T23:26:01.494Z,102109.25
2022-08-31T23:29:09.218Z,102108.59
2022-08-31T23:32:13.280Z,102103.88
2022-08-31T23:35:18.704Z,102110.19
2022-08-31T23:38:21.446Z,102103.78
2022-08-31T23:41:26.096Z,102104.47
2022-08-31T23:44:30.523Z,102101.19
2022-08-31T23:47:33.189Z,102106.44
2022-08-31T23:50:35.877Z,102097.31
2022-08-31T23:53:38.914Z,102099.72
2022-08-31T23:56:44.624Z,102103.34
2022-08-31T23:59:52.835Z,102094.88
